Time;durP1;ratioP1;P1;durP2;ratioP2;P2;SDS_P1;SDS_P2;PMS_P1;PMS_P2;Temp;Humidity;BMP_temperature;BMP_pressure;BME280_temperature;BME280_humidity;BME280_pressure;Samples;Min_cycle;Max_cycle;Signal;HPM_P1;HPM_P2
2022/01/13 00:00:06;;;;;;;87.35;21.17;;;7.70;86.60;;;;;;6091280;23;98468;-65
2022/01/13 00:02:35;;;;;;;87.80;22.50;;;7.80;86.40;;;;;;6091550;23;100690;-65
2022/01/13 00:05:04;;;;;;;112.30;22.73;;;7.80;86.40;;;;;;6089069;23;98970;-65
2022/01/13 00:07:31;;;;;;;85.72;22.15;;;7.80;86.20;;;;;;6090902;23;98461;-66
2022/01/13 00:09:58;;;;;;;91.40;22.63;;;7.80;86.50;;;;;;6091157;23;99225;-66
2022/01/13 00:12:30;;;;;;;93.38;23.00;;;7.70;87.40;;;;;;6090955;23;99915;-65
2022/01/13 00:17:58;;;;;;;93.32;23.67;;;7.70;86.90;;;;;;6089869;23;98376;-65
2022/01/13 00:25:55;;;;;;;103.68;23.13;;;7.70;86.90;;;;;;6090793;23;98915;-66
2022/01/13 00:28:22;;;;;;;100.03;23.40;;;7.70;87.00;;;;;;6065430;23;97692;-65
2022/01/13 00:30:54;;;;;;;83.88;22.08;;;7.70;86.90;;;;;;6091484;23;98493;-66
2022/01/13 00:33:24;;;;;;;88.20;22.38;;;7.70;87.20;;;;;;6090608;23;99364;-65
2022/01/13 00:35:57;;;;;;;96.10;22.52;;;7.70;87.30;;;;;;6090434;23;99227;-65
2022/01/13 00:38:25;;;;;;;95.85;22.80;;;7.80;87.30;;;;;;6091125;23;98453;-66
2022/01/13 00:40:53;;;;;;;99.85;22.23;;;7.70;87.00;;;;;;6091342;23;98474;-65
2022/01/13 00:43:20;;;;;;;94.15;22.55;;;7.80;87.00;;;;;;6064690;23;98959;-65
2022/01/13 00:45:48;;;;;;;112.10;23.17;;;7.70;87.00;;;;;;6090810;23;98880;-66
2022/01/13 00:48:16;;;;;;;113.50;23.27;;;7.70;87.10;;;;;;6090912;23;98928;-66
2022/01/13 00:50:44;;;;;;;133.60;24.25;;;7.70;86.80;;;;;;6091243;23;98462;-66
2022/01/13 00:53:11;;;;;;;163.23;25.48;;;7.70;87.00;;;;;;6090889;23;99982;-66
2022/01/13 00:58:34;;;;;;;117.55;24.23;;;7.70;87.00;;;;;;6060703;23;98612;-65
2022/01/13 01:01:04;;;;;;;104.57;21.95;;;7.70;87.30;;;;;;6090760;23;99284;-66
2022/01/13 01:03:32;;;;;;;91.28;20.40;;;7.70;87.20;;;;;;6089988;23;99024;-66
2022/01/13 01:06:03;;;;;;;112.13;22.83;;;7.70;87.20;;;;;;6064295;23;99058;-65
2022/01/13 01:08:32;;;;;;;94.45;22.05;;;7.70;87.70;;;;;;6090863;23;98399;-71
2022/01/13 01:11:02;;;;;;;111.47;22.75;;;7.70;87.10;;;;;;6091069;23;98451;-71
2022/01/13 01:13:33;;;;;;;83.40;19.70;;;7.70;87.30;;;;;;6090690;23;98991;-71
2022/01/13 01:16:05;;;;;;;74.85;18.75;;;7.70;87.40;;;;;;6090855;23;99181;-71
2022/01/13 01:18:48;;;;;;;69.15;17.17;;;7.70;87.50;;;;;;6091182;23;97658;-71
2022/01/13 01:22:16;;;;;;;58.38;17.77;;;7.70;87.30;;;;;;6064543;23;98434;-71
2022/01/13 01:26:52;;;;;;;66.00;16.15;;;7.60;87.70;;;;;;6089964;23;99929;-71
2022/01/13 01:29:40;;;;;;;66.03;15.93;;;7.60;87.60;;;;;;6090780;23;98922;-71
2022/01/13 01:32:11;;;;;;;68.80;16.55;;;7.70;87.90;;;;;;6090946;23;98770;-71
2022/01/13 01:34:55;;;;;;;53.53;16.55;;;7.70;87.80;;;;;;6090361;23;102312;-71
2022/01/13 01:37:27;;;;;;;54.22;16.05;;;7.70;87.50;;;;;;6089928;23;98862;-71
2022/01/13 01:39:56;;;;;;;52.55;15.63;;;7.70;87.80;;;;;;6091038;23;98548;-72
2022/01/13 01:42:25;;;;;;;52.35;15.95;;;7.70;87.80;;;;;;6064921;23;98921;-71
2022/01/13 01:44:55;;;;;;;44.20;15.13;;;7.70;88.00;;;;;;6088945;23;99514;-72
2022/01/13 01:47:25;;;;;;;51.05;16.05;;;7.70;87.80;;;;;;6090011;23;98498;-71
2022/01/13 01:49:56;;;;;;;38.40;13.27;;;7.70;87.90;;;;;;6090726;23;98346;-65
2022/01/13 01:52:24;;;;;;;41.78;15.15;;;7.70;88.40;;;;;;6090100;23;99150;-65
2022/01/13 01:54:51;;;;;;;29.70;13.50;;;7.70;87.90;;;;;;6063701;23;114055;-65
2022/01/13 01:57:20;;;;;;;39.80;14.95;;;7.70;87.90;;;;;;6090006;23;98793;-65
2022/01/13 01:59:48;;;;;;;53.25;15.23;;;7.70;87.80;;;;;;6090665;23;98475;-65
2022/01/13 02:02:16;;;;;;;41.10;14.02;;;7.70;87.60;;;;;;6064290;23;98542;-65
2022/01/13 02:04:44;;;;;;;35.40;14.05;;;7.80;87.70;;;;;;6090344;23;98918;-65
2022/01/13 02:07:13;;;;;;;39.65;14.55;;;7.80;87.40;;;;;;6063110;23;106867;-65
2022/01/13 02:09:43;;;;;;;43.65;14.50;;;7.80;87.30;;;;;;6090570;23;97637;-65
2022/01/13 02:12:18;;;;;;;43.90;15.32;;;7.80;87.50;;;;;;6064183;23;98543;-65
2022/01/13 02:15:16;;;;;;;45.80;13.93;;;7.80;87.30;;;;;;6090355;23;98990;-65
2022/01/13 02:17:43;;;;;;;44.38;13.80;;;7.80;87.40;;;;;;6090751;23;99199;-65
2022/01/13 02:20:17;;;;;;;41.75;15.05;;;7.80;87.20;;;;;;6090664;23;98967;-66
2022/01/13 02:22:44;;;;;;;37.67;13.38;;;7.80;87.10;;;;;;6091661;23;98522;-65
2022/01/13 02:25:14;;;;;;;45.40;14.10;;;7.80;87.30;;;;;;6091508;23;98993;-65
2022/01/13 02:27:42;;;;;;;38.88;13.32;;;7.80;87.40;;;;;;6089509;23;100033;-65
2022/01/13 02:30:10;;;;;;;47.67;15.20;;;7.70;87.30;;;;;;6090316;23;98532;-65
2022/01/13 02:32:37;;;;;;;41.10;14.30;;;7.80;87.30;;;;;;6091839;23;98888;-65
2022/01/13 02:35:04;;;;;;;38.85;12.80;;;7.80;87.80;;;;;;6091966;23;98894;-65
2022/01/13 02:37:31;;;;;;;40.50;16.02;;;7.80;87.40;;;;;;6091096;23;98507;-65
2022/01/13 02:39:58;;;;;;;50.97;17.00;;;7.80;87.30;;;;;;6092059;23;98525;-65
2022/01/13 02:42:25;;;;;;;49.88;15.43;;;7.80;87.30;;;;;;6091231;23;99208;-65
2022/01/13 02:45:03;;;;;;;47.00;15.80;;;7.80;87.30;;;;;;6065188;23;100093;-65
2022/01/13 02:47:48;;;;;;;46.60;16.75;;;7.80;87.60;;;;;;6090998;23;99009;-66
2022/01/13 02:50:14;;;;;;;58.10;16.35;;;7.80;87.30;;;;;;6091785;23;98572;-66
2022/01/13 02:52:42;;;;;;;46.33;15.20;;;7.80;87.40;;;;;;6065176;23;98648;-65
2022/01/13 02:55:09;;;;;;;53.50;17.58;;;7.80;87.40;;;;;;6091281;23;98982;-65
2022/01/13 02:57:38;;;;;;;57.45;17.33;;;7.80;87.40;;;;;;6091136;23;101451;-65
2022/01/13 03:00:08;;;;;;;50.22;16.35;;;7.80;87.20;;;;;;6092179;23;97831;-65
2022/01/13 03:02:35;;;;;;;52.60;17.15;;;7.90;87.30;;;;;;6091506;23;98459;-65
2022/01/13 03:05:02;;;;;;;48.80;16.73;;;7.80;87.20;;;;;;6091267;23;99105;-66
2022/01/13 03:07:33;;;;;;;42.78;15.43;;;7.90;87.30;;;;;;6089938;23;99644;-65
2022/01/13 03:10:01;;;;;;;47.15;15.43;;;7.80;87.30;;;;;;6091735;23;98856;-66
2022/01/13 03:12:28;;;;;;;49.65;16.27;;;7.90;87.30;;;;;;6091410;23;98459;-65
2022/01/13 03:14:56;;;;;;;56.38;17.15;;;7.90;87.40;;;;;;6091256;23;99504;-65
2022/01/13 03:17:23;;;;;;;55.60;16.08;;;7.90;87.20;;;;;;6090973;23;100008;-65
2022/01/13 03:19:50;;;;;;;50.17;16.00;;;7.90;87.10;;;;;;6091146;23;98369;-66
2022/01/13 03:22:17;;;;;;;44.20;15.77;;;7.90;86.90;;;;;;6065707;23;98457;-66
2022/01/13 03:24:43;;;;;;;48.47;16.23;;;7.90;86.70;;;;;;6089668;23;99328;-65
2022/01/13 03:27:18;;;;;;;52.70;16.42;;;7.90;86.70;;;;;;6088827;23;100916;-65
2022/01/13 03:29:46;;;;;;;43.42;15.23;;;7.90;86.80;;;;;;6091584;23;99127;-65
2022/01/13 03:32:14;;;;;;;35.60;13.80;;;7.90;86.80;;;;;;6091224;23;99275;-65
2022/01/13 03:34:41;;;;;;;46.97;15.73;;;7.80;86.60;;;;;;6090822;23;99127;-65
2022/01/13 03:37:08;;;;;;;47.70;16.55;;;7.80;86.90;;;;;;6064965;23;100058;-65
2022/01/13 03:39:35;;;;;;;44.88;15.63;;;7.80;86.80;;;;;;6091099;23;98627;-66
2022/01/13 03:42:03;;;;;;;50.78;16.05;;;7.80;87.30;;;;;;6091539;23;98483;-65
2022/01/13 03:44:30;;;;;;;41.17;15.35;;;7.80;87.30;;;;;;6090974;23;100027;-65
2022/01/13 03:47:02;;;;;;;47.08;15.55;;;7.80;87.00;;;;;;6090610;23;98758;-65
2022/01/13 03:49:30;;;;;;;39.60;13.80;;;7.80;87.20;;;;;;6092053;23;97705;-71
2022/01/13 03:52:02;;;;;;;50.80;14.90;;;7.80;87.40;;;;;;6091244;23;98436;-71
2022/01/13 03:54:28;;;;;;;42.30;14.55;;;7.80;87.20;;;;;;6089723;23;100152;-71
2022/01/13 03:57:32;;;;;;;38.30;13.57;;;7.80;87.40;;;;;;6089862;23;111781;-71
2022/01/13 04:00:41;;;;;;;39.70;13.32;;;7.80;87.10;;;;;;6091209;23;98502;-71
2022/01/13 04:03:09;;;;;;;42.20;13.93;;;7.80;87.20;;;;;;6089768;23;98502;-72
2022/01/13 04:06:03;;;;;;;44.72;13.68;;;7.70;87.70;;;;;;6090621;23;98887;-71
2022/01/13 04:08:30;;;;;;;37.17;14.38;;;7.70;87.40;;;;;;6090621;23;98935;-71
2022/01/13 04:11:03;;;;;;;34.78;12.77;;;7.60;87.40;;;;;;6091144;23;98539;-71
2022/01/13 04:16:20;;;;;;;40.10;14.25;;;7.60;87.50;;;;;;6089790;23;102057;-71
2022/01/13 04:18:49;;;;;;;45.13;14.07;;;7.70;87.40;;;;;;6090696;23;98398;-71
2022/01/13 04:21:18;;;;;;;43.30;15.27;;;7.70;87.30;;;;;;6090719;23;105081;-71
2022/01/13 04:23:45;;;;;;;53.22;15.65;;;7.70;87.30;;;;;;6090705;23;99278;-71
2022/01/13 04:26:16;;;;;;;60.35;17.42;;;7.60;87.20;;;;;;6064575;23;100176;-72
2022/01/13 04:28:44;;;;;;;47.33;16.10;;;7.60;87.30;;;;;;6090514;23;98784;-71
2022/01/13 04:31:11;;;;;;;51.38;15.65;;;7.60;87.40;;;;;;6091057;23;98425;-72
2022/01/13 04:33:38;;;;;;;52.65;16.40;;;7.60;87.50;;;;;;6091370;23;98424;-72
2022/01/13 04:36:08;;;;;;;68.50;17.10;;;7.60;87.60;;;;;;6090751;23;99446;-72
2022/01/13 04:38:35;;;;;;;68.88;16.73;;;7.60;87.40;;;;;;6090682;23;98864;-71
2022/01/13 04:41:04;;;;;;;58.47;16.20;;;7.60;87.40;;;;;;6065515;23;97712;-71
2022/01/13 04:43:32;;;;;;;46.97;15.60;;;7.60;87.40;;;;;;6091261;23;98514;-71
2022/01/13 04:45:59;;;;;;;43.70;15.73;;;7.60;87.60;;;;;;6090405;23;99160;-71
2022/01/13 04:48:27;;;;;;;51.60;16.88;;;7.60;87.70;;;;;;6090329;23;99119;-72
2022/01/13 04:50:54;;;;;;;56.33;17.70;;;7.60;87.80;;;;;;6090901;23;98419;-71
2022/01/13 04:53:21;;;;;;;55.25;17.65;;;7.60;87.80;;;;;;6090961;23;98465;-71
2022/01/13 04:55:51;;;;;;;75.43;19.20;;;7.60;87.70;;;;;;6088971;23;99312;-71
2022/01/13 04:58:21;;;;;;;63.58;17.77;;;7.50;88.00;;;;;;6090779;23;98885;-71
2022/01/13 05:00:48;;;;;;;67.55;16.98;;;7.60;88.40;;;;;;6090873;23;98447;-71
2022/01/13 05:03:15;;;;;;;82.88;18.25;;;7.60;87.90;;;;;;6090991;23;98891;-73
2022/01/13 05:05:42;;;;;;;60.90;16.42;;;7.60;87.80;;;;;;6091161;23;98375;-71
2022/01/13 05:08:09;;;;;;;49.83;16.17;;;7.50;87.90;;;;;;6089932;23;98487;-71
2022/01/13 05:10:36;;;;;;;57.60;15.80;;;7.50;87.70;;;;;;6091013;23;98467;-73
2022/01/13 05:13:08;;;;;;;56.35;16.20;;;7.50;88.00;;;;;;6090592;23;99626;-73
2022/01/13 05:15:37;;;;;;;52.38;17.40;;;7.50;87.80;;;;;;6090566;23;98431;-73
2022/01/13 05:20:41;;;;;;;61.53;16.33;;;7.50;88.10;;;;;;6090984;23;98449;-73
2022/01/13 05:23:10;;;;;;;62.67;16.40;;;7.40;88.00;;;;;;6090690;23;98531;-73
2022/01/13 05:25:39;;;;;;;59.80;17.10;;;7.50;88.00;;;;;;6064235;23;101388;-73
2022/01/13 05:28:06;;;;;;;62.03;17.90;;;7.50;88.00;;;;;;6090124;23;98802;-73
2022/01/13 05:30:33;;;;;;;57.95;16.95;;;7.50;88.20;;;;;;6091142;23;97724;-71
2022/01/13 05:33:00;;;;;;;41.70;16.08;;;7.50;88.10;;;;;;6089141;23;98473;-71
2022/01/13 05:35:27;;;;;;;40.05;14.65;;;7.50;88.10;;;;;;6090345;23;99006;-70
2022/01/13 05:37:54;;;;;;;53.60;16.10;;;7.50;88.20;;;;;;6089595;23;99213;-70
2022/01/13 05:40:21;;;;;;;44.50;15.98;;;7.50;87.70;;;;;;6063687;23;108529;-70
2022/01/13 05:42:49;;;;;;;58.90;16.20;;;7.50;87.50;;;;;;6090734;23;98444;-70
2022/01/13 05:45:19;;;;;;;38.40;14.68;;;7.50;87.90;;;;;;6088618;23;100016;-71
2022/01/13 05:47:49;;;;;;;43.15;15.57;;;7.50;87.60;;;;;;6090241;23;98801;-70
2022/01/13 05:50:18;;;;;;;42.33;14.05;;;7.50;87.50;;;;;;6090665;23;98404;-71
2022/01/13 05:52:45;;;;;;;45.15;15.13;;;7.60;87.40;;;;;;6092011;23;98429;-71
2022/01/13 05:55:13;;;;;;;36.08;15.18;;;7.50;87.30;;;;;;6090095;23;99291;-70
2022/01/13 05:57:40;;;;;;;45.10;15.50;;;7.50;87.30;;;;;;6089879;23;99162;-71
2022/01/13 06:00:10;;;;;;;41.10;15.10;;;7.50;87.60;;;;;;6089577;23;101072;-70
2022/01/13 06:02:37;;;;;;;41.83;15.73;;;7.50;87.50;;;;;;6091471;23;99330;-71
2022/01/13 06:05:06;;;;;;;39.67;14.55;;;7.50;87.70;;;;;;6091211;23;99186;-70
2022/01/13 06:07:33;;;;;;;41.50;15.70;;;7.60;87.40;;;;;;6065213;23;98755;-70
2022/01/13 06:10:02;;;;;;;46.15;16.33;;;7.50;87.20;;;;;;6066067;23;98891;-70
2022/01/13 06:12:37;;;;;;;48.08;16.67;;;7.60;87.20;;;;;;6066384;23;98566;-70
2022/01/13 06:15:09;;;;;;;38.50;15.57;;;7.60;87.30;;;;;;6066958;23;100458;-70
2022/01/13 06:17:38;;;;;;;46.70;15.55;;;7.60;87.10;;;;;;6091495;23;98759;-70
2022/01/13 06:20:07;;;;;;;52.28;16.40;;;7.60;87.10;;;;;;6091796;23;97646;-70
2022/01/13 06:22:34;;;;;;;47.42;15.40;;;7.50;87.10;;;;;;6091839;23;98605;-70
2022/01/13 06:25:03;;;;;;;63.78;15.75;;;7.50;87.20;;;;;;6091454;23;102501;-71
2022/01/13 06:27:30;;;;;;;45.40;14.50;;;7.50;87.20;;;;;;6040416;23;100084;-71
2022/01/13 06:29:57;;;;;;;40.65;13.88;;;7.40;87.30;;;;;;6091680;23;98923;-70
2022/01/13 06:32:24;;;;;;;62.28;16.90;;;7.40;88.40;;;;;;6091663;23;98473;-70
2022/01/13 06:34:52;;;;;;;36.47;11.77;;;7.40;88.10;;;;;;6091346;23;98933;-70
2022/01/13 06:37:20;;;;;;;61.35;16.38;;;7.40;88.00;;;;;;6064808;23;99920;-70
2022/01/13 06:39:47;;;;;;;49.95;14.63;;;7.40;88.00;;;;;;6090060;23;98590;-70
2022/01/13 06:42:14;;;;;;;50.50;14.93;;;7.40;88.00;;;;;;6091544;23;98524;-72
2022/01/13 06:44:41;;;;;;;46.50;15.43;;;7.40;88.00;;;;;;6064968;23;116682;-73
2022/01/13 06:47:08;;;;;;;56.55;16.98;;;7.40;87.70;;;;;;6091043;23;98413;-67
2022/01/13 06:49:36;;;;;;;54.72;17.45;;;7.40;88.00;;;;;;6091772;23;99138;-67
2022/01/13 06:52:03;;;;;;;57.30;15.95;;;7.40;88.10;;;;;;6065053;23;99238;-65
2022/01/13 06:54:30;;;;;;;50.65;16.05;;;7.40;87.70;;;;;;6091277;23;99098;-64
2022/01/13 06:57:02;;;;;;;56.58;16.55;;;7.40;88.10;;;;;;6091139;23;98928;-64
2022/01/13 06:59:28;;;;;;;45.53;15.63;;;7.40;87.90;;;;;;6089915;23;98477;-65
2022/01/13 07:01:59;;;;;;;46.72;15.68;;;7.40;88.00;;;;;;6091086;23;98550;-64
2022/01/13 07:04:27;;;;;;;56.67;16.83;;;7.40;88.10;;;;;;6090977;23;99102;-65
2022/01/13 07:06:55;;;;;;;46.42;15.77;;;7.40;88.10;;;;;;6090713;23;98828;-65
2022/01/13 07:09:22;;;;;;;64.70;17.13;;;7.40;88.20;;;;;;6091599;23;97638;-65
2022/01/13 07:11:49;;;;;;;51.67;16.63;;;7.40;88.10;;;;;;6090032;23;98499;-70
2022/01/13 07:14:16;;;;;;;49.45;15.48;;;7.40;87.90;;;;;;6065090;23;99055;-73
2022/01/13 07:16:45;;;;;;;52.63;16.02;;;7.40;88.30;;;;;;6113863;23;99987;-73
2022/01/13 07:19:14;;;;;;;48.03;15.73;;;7.40;88.20;;;;;;6091507;23;98832;-71
2022/01/13 07:21:42;;;;;;;41.40;15.23;;;7.40;88.20;;;;;;6091152;23;98517;-70
2022/01/13 07:24:09;;;;;;;59.63;17.25;;;7.30;88.50;;;;;;6090984;23;98999;-70
2022/01/13 07:26:37;;;;;;;46.38;14.68;;;7.40;88.60;;;;;;6090955;23;102375;-70
2022/01/13 07:29:04;;;;;;;59.45;17.60;;;7.40;88.40;;;;;;6064995;23;98494;-70
2022/01/13 07:31:31;;;;;;;55.45;15.30;;;7.40;88.50;;;;;;6089805;23;98513;-70
2022/01/13 07:33:58;;;;;;;56.13;18.08;;;7.40;88.50;;;;;;6091627;23;98292;-70
2022/01/13 07:36:25;;;;;;;51.28;15.07;;;7.40;88.50;;;;;;6090863;23;98508;-70
2022/01/13 07:38:52;;;;;;;54.65;17.50;;;7.40;88.50;;;;;;6091432;23;98452;-65
2022/01/13 07:41:19;;;;;;;67.80;16.63;;;7.40;88.40;;;;;;6113395;23;102857;-64
2022/01/13 07:43:52;;;;;;;54.88;16.13;;;7.40;88.50;;;;;;6090996;23;99142;-67
2022/01/13 07:46:24;;;;;;;53.97;16.43;;;7.40;88.50;;;;;;6090802;23;98800;-65
2022/01/13 07:48:52;;;;;;;54.58;16.58;;;7.40;88.80;;;;;;6091362;23;98451;-65
2022/01/13 07:51:19;;;;;;;50.53;16.02;;;7.40;88.70;;;;;;6091004;23;98384;-64
2022/01/13 07:53:46;;;;;;;59.33;16.35;;;7.40;88.90;;;;;;6091011;23;99075;-65
2022/01/13 07:56:13;;;;;;;49.83;16.67;;;7.50;88.90;;;;;;6064434;23;99970;-65
2022/01/13 07:58:41;;;;;;;43.10;17.70;;;7.50;89.00;;;;;;6091695;23;98167;-64
2022/01/13 08:01:08;;;;;;;56.45;17.95;;;7.50;89.10;;;;;;6064805;23;98480;-68
2022/01/13 08:03:35;;;;;;;47.50;14.60;;;7.50;88.80;;;;;;6090737;23;99103;-67
2022/01/13 08:06:04;;;;;;;50.55;16.17;;;7.50;88.70;;;;;;6090549;23;99293;-67
2022/01/13 08:08:32;;;;;;;52.83;16.30;;;7.50;88.70;;;;;;6090002;23;104135;-67
2022/01/13 08:10:59;;;;;;;62.97;17.15;;;7.60;88.60;;;;;;6091455;23;98464;-67
2022/01/13 08:13:26;;;;;;;41.72;15.48;;;7.60;88.80;;;;;;6090172;23;100084;-67
2022/01/13 08:15:58;;;;;;;48.40;15.52;;;7.60;88.80;;;;;;6090845;23;98870;-67
2022/01/13 08:21:11;;;;;;;49.13;15.32;;;7.60;88.60;;;;;;6091436;23;98371;-65
2022/01/13 08:23:38;;;;;;;50.67;15.57;;;7.60;88.20;;;;;;6091127;23;98280;-65
2022/01/13 08:26:05;;;;;;;46.70;14.25;;;7.60;88.20;;;;;;6090861;23;98446;-65
2022/01/13 08:28:32;;;;;;;65.63;18.10;;;7.60;88.00;;;;;;6090630;23;98421;-65
2022/01/13 08:31:00;;;;;;;54.25;16.58;;;7.60;88.00;;;;;;6090834;23;99646;-65
2022/01/13 08:33:27;;;;;;;51.53;15.15;;;7.60;88.10;;;;;;6089913;23;111769;-65
2022/01/13 08:35:54;;;;;;;58.65;18.50;;;7.60;88.30;;;;;;6089056;23;98782;-65
2022/01/13 08:38:23;;;;;;;51.13;15.25;;;7.60;87.90;;;;;;6090738;23;98474;-67
2022/01/13 08:40:57;;;;;;;50.38;15.65;;;7.70;88.00;;;;;;6091185;23;98438;-67
2022/01/13 08:43:28;;;;;;;51.30;15.18;;;7.70;87.90;;;;;;6064706;23;99203;-67
2022/01/13 08:45:56;;;;;;;57.85;17.00;;;7.70;87.80;;;;;;6064539;23;99889;-73
2022/01/13 08:48:23;;;;;;;57.85;15.50;;;7.70;87.70;;;;;;6091464;23;97670;-73
2022/01/13 08:50:51;;;;;;;51.70;16.15;;;7.70;87.60;;;;;;6091068;23;98582;-73
2022/01/13 08:53:18;;;;;;;47.25;15.00;;;7.80;87.70;;;;;;6090433;23;100306;-73
2022/01/13 08:55:46;;;;;;;53.42;15.68;;;7.80;87.70;;;;;;6090004;23;99833;-73
2022/01/13 08:58:13;;;;;;;46.92;15.38;;;7.80;87.80;;;;;;6091164;23;98425;-71
2022/01/13 09:00:41;;;;;;;48.78;16.05;;;7.80;87.50;;;;;;6065072;23;98525;-70
2022/01/13 09:03:09;;;;;;;50.28;15.32;;;7.80;87.70;;;;;;6090138;23;110774;-71
2022/01/13 09:05:37;;;;;;;51.53;15.68;;;7.80;87.40;;;;;;6090419;23;98712;-73
2022/01/13 09:08:10;;;;;;;48.45;14.80;;;7.80;87.60;;;;;;6090608;23;98404;-73
2022/01/13 09:10:40;;;;;;;54.97;16.48;;;7.90;87.60;;;;;;6090878;23;98548;-73
2022/01/13 09:13:08;;;;;;;53.80;15.77;;;7.90;87.40;;;;;;6091088;23;98226;-73
2022/01/13 09:15:38;;;;;;;44.75;15.10;;;7.90;87.20;;;;;;6086946;23;99217;-73
2022/01/13 09:18:18;;;;;;;46.50;16.13;;;7.90;87.30;;;;;;6090884;23;98404;-71
2022/01/13 09:20:46;;;;;;;49.53;15.50;;;8.00;87.20;;;;;;6090422;23;99241;-70
2022/01/13 09:23:13;;;;;;;50.45;16.45;;;8.00;87.10;;;;;;6090479;23;98453;-71
2022/01/13 09:25:40;;;;;;;51.22;15.40;;;8.00;86.90;;;;;;6090661;23;98866;-71
2022/01/13 09:28:08;;;;;;;53.15;16.40;;;8.00;87.00;;;;;;6092094;23;98555;-70
2022/01/13 09:30:36;;;;;;;47.25;15.68;;;8.10;87.00;;;;;;6091295;23;98577;-71
2022/01/13 09:33:04;;;;;;;44.00;15.43;;;8.00;86.80;;;;;;6091634;23;98973;-70
2022/01/13 09:35:31;;;;;;;41.75;16.42;;;8.10;87.10;;;;;;6091280;23;98850;-71
2022/01/13 09:37:59;;;;;;;42.95;16.40;;;8.10;86.90;;;;;;6092477;23;97728;-70
2022/01/13 09:40:27;;;;;;;44.08;14.95;;;8.10;86.90;;;;;;6091754;23;98558;-70
2022/01/13 09:42:54;;;;;;;42.90;15.00;;;8.10;86.80;;;;;;6091458;23;101201;-70
2022/01/13 09:45:22;;;;;;;46.33;16.10;;;8.20;87.00;;;;;;6089464;23;100169;-71
2022/01/13 09:47:51;;;;;;;50.20;17.42;;;8.20;86.80;;;;;;6091845;23;98481;-71
2022/01/13 09:50:21;;;;;;;45.00;15.73;;;8.30;86.80;;;;;;6091933;23;98371;-70
2022/01/13 09:52:49;;;;;;;50.40;17.13;;;8.30;86.70;;;;;;6064540;23;105011;-71
2022/01/13 09:55:17;;;;;;;45.78;16.58;;;8.30;86.60;;;;;;6091508;23;98968;-71
2022/01/13 09:57:49;;;;;;;52.55;17.20;;;8.40;86.70;;;;;;6065312;23;98462;-71
2022/01/13 10:00:20;;;;;;;53.38;17.45;;;8.40;86.70;;;;;;6092084;23;98516;-71
2022/01/13 10:02:47;;;;;;;47.15;16.48;;;8.40;86.70;;;;;;6091688;23;98212;-73
2022/01/13 10:05:22;;;;;;;49.20;16.92;;;8.50;86.40;;;;;;6065503;23;99301;-73
2022/01/13 10:07:52;;;;;;;43.63;14.27;;;8.50;86.70;;;;;;6060719;23;98727;-71
2022/01/13 10:10:27;;;;;;;56.85;19.25;;;8.50;86.50;;;;;;6061989;23;99102;-70
2022/01/13 10:13:04;;;;;;;65.78;18.27;;;8.50;86.50;;;;;;6061795;23;98995;-70
2022/01/13 10:18:46;;;;;;;48.55;14.50;;;8.60;86.40;;;;;;6062571;23;98417;-71
2022/01/13 10:21:15;;;;;;;50.78;16.95;;;8.60;86.30;;;;;;6062608;23;98477;-71
2022/01/13 10:24:09;;;;;;;49.70;15.60;;;8.50;86.80;;;;;;6061787;23;99255;-71
2022/01/13 10:26:40;;;;;;;51.08;17.83;;;8.60;86.50;;;;;;6061751;23;98855;-71
2022/01/13 10:29:08;;;;;;;49.05;15.73;;;8.60;86.50;;;;;;6063092;23;97785;-71
2022/01/13 10:31:49;;;;;;;50.10;16.20;;;8.60;86.20;;;;;;6084579;23;98592;-71
2022/01/13 10:34:26;;;;;;;50.38;17.27;;;8.70;86.20;;;;;;6061881;23;99791;-71
2022/01/13 10:37:07;;;;;;;59.60;17.48;;;8.60;85.90;;;;;;6061098;23;99693;-71
2022/01/13 10:40:08;;;;;;;44.83;15.38;;;8.70;86.10;;;;;;6062361;23;98431;-71
2022/01/13 10:45:19;;;;;;;35.90;15.18;;;8.70;85.90;;;;;;6062339;23;99099;-71
2022/01/13 10:47:56;;;;;;;40.63;15.75;;;8.80;85.60;;;;;;6061863;23;99290;-71
2022/01/13 10:50:34;;;;;;;40.70;16.73;;;8.80;85.70;;;;;;6062450;23;98841;-71
2022/01/13 10:53:12;;;;;;;41.38;14.23;;;8.80;86.00;;;;;;6062424;23;98499;-72
2022/01/13 10:55:46;;;;;;;42.40;16.40;;;8.80;85.80;;;;;;6036352;23;99626;-72
2022/01/13 10:58:15;;;;;;;42.38;15.00;;;8.80;85.70;;;;;;6061836;23;98483;-72
2022/01/13 11:00:44;;;;;;;41.45;15.55;;;8.90;85.40;;;;;;6061023;23;106938;-71
2022/01/13 11:03:12;;;;;;;39.35;14.95;;;8.90;85.00;;;;;;6061901;23;99167;-71
2022/01/13 11:06:03;;;;;;;42.28;16.60;;;8.90;85.20;;;;;;6060862;23;100327;-73
2022/01/13 11:08:39;;;;;;;38.35;15.52;;;9.00;85.10;;;;;;6088456;23;98818;-71
2022/01/13 11:11:23;;;;;;;44.28;16.23;;;9.00;85.00;;;;;;6091657;23;98504;-71
2022/01/13 11:13:57;;;;;;;39.60;14.45;;;9.00;84.90;;;;;;6090987;23;98376;-71
2022/01/13 11:16:26;;;;;;;32.90;12.75;;;9.00;85.10;;;;;;6089528;23;100181;-71
2022/01/13 11:18:53;;;;;;;42.38;15.27;;;8.90;84.80;;;;;;6090440;23;114619;-71
2022/01/13 11:21:21;;;;;;;42.40;15.02;;;8.90;85.00;;;;;;6091731;23;97731;-71
2022/01/13 11:23:51;;;;;;;37.97;14.00;;;8.90;85.10;;;;;;6091181;23;98596;-72
2022/01/13 11:26:19;;;;;;;39.92;14.20;;;8.90;85.30;;;;;;6090974;23;99149;-71
2022/01/13 11:28:48;;;;;;;31.38;12.55;;;8.90;85.40;;;;;;6113432;23;100023;-72
2022/01/13 11:31:14;;;;;;;45.00;15.20;;;9.00;85.10;;;;;;6090004;23;98469;-72
2022/01/13 11:33:41;;;;;;;38.97;14.35;;;9.00;85.30;;;;;;6091636;23;98454;-72
2022/01/13 11:36:12;;;;;;;38.17;14.15;;;9.00;85.40;;;;;;6091213;23;98995;-71
2022/01/13 11:38:57;;;;;;;35.75;14.40;;;9.00;85.10;;;;;;6091251;23;98829;-71
2022/01/13 11:41:24;;;;;;;37.95;14.02;;;9.10;85.00;;;;;;6091486;23;98412;-71
2022/01/13 11:43:51;;;;;;;35.78;13.57;;;9.10;85.30;;;;;;6091320;23;98446;-71
2022/01/13 11:46:19;;;;;;;35.95;14.05;;;9.10;84.80;;;;;;6090923;23;111138;-71
2022/01/13 11:49:10;;;;;;;33.75;13.02;;;9.20;84.70;;;;;;6089953;23;99397;-71
2022/01/13 11:51:42;;;;;;;32.85;13.02;;;9.20;85.00;;;;;;6091384;23;98837;-71
2022/01/13 11:54:10;;;;;;;29.58;12.90;;;9.10;84.70;;;;;;6090926;23;99203;-71
2022/01/13 11:57:14;;;;;;;30.02;12.45;;;9.10;84.90;;;;;;6110004;23;100201;-71
2022/01/13 12:00:01;;;;;;;24.40;12.40;;;9.20;85.30;;;;;;6091173;23;99338;-71
2022/01/13 12:02:43;;;;;;;27.45;12.77;;;9.20;84.60;;;;;;6091311;23;98514;-71
2022/01/13 12:05:19;;;;;;;28.42;14.43;;;9.20;85.20;;;;;;6091144;23;98475;-71
2022/01/13 12:07:47;;;;;;;23.13;13.23;;;9.20;84.30;;;;;;6090261;23;99065;-71
2022/01/13 12:10:20;;;;;;;25.60;12.43;;;9.20;84.30;;;;;;6090944;23;98959;-71
2022/01/13 12:12:48;;;;;;;28.98;13.77;;;9.30;84.00;;;;;;6090276;23;97765;-72
2022/01/13 12:15:20;;;;;;;26.08;13.75;;;9.20;84.70;;;;;;6114541;23;98491;-73
2022/01/13 12:17:53;;;;;;;27.02;11.68;;;9.30;84.20;;;;;;6090931;23;99056;-71
2022/01/13 12:21:21;;;;;;;27.10;13.90;;;9.30;83.70;;;;;;6090797;23;99871;-72
2022/01/13 12:23:38;;;;;;;23.83;12.70;;;9.30;83.80;;;;;;6088205;23;98536;-71
2022/01/13 12:26:33;;;;;;;25.35;13.70;;;9.30;83.80;;;;;;6091099;23;98510;-71
2022/01/13 12:29:19;;;;;;;23.00;13.73;;;9.30;83.60;;;;;;6090450;23;100106;-71
2022/01/13 12:32:04;;;;;;;29.40;15.10;;;9.30;83.60;;;;;;6113910;23;100010;-71
2022/01/13 12:34:31;;;;;;;29.10;15.15;;;9.30;83.60;;;;;;6065125;23;98534;-71
2022/01/13 12:37:19;;;;;;;26.13;14.50;;;9.20;83.70;;;;;;6091047;23;98537;-71
2022/01/13 12:39:57;;;;;;;31.00;13.90;;;9.30;83.90;;;;;;6091245;23;98307;-71
2022/01/13 12:43:11;;;;;;;32.03;15.07;;;9.30;83.70;;;;;;6090890;23;98492;-71
2022/01/13 12:45:39;;;;;;;33.92;14.82;;;9.30;83.40;;;;;;6029986;23;98743;-71
2022/01/13 12:48:08;;;;;;;32.58;14.48;;;9.20;84.40;;;;;;6083417;23;99306;-71
2022/01/13 12:50:47;;;;;;;38.92;15.18;;;9.20;84.30;;;;;;6088791;23;103932;-71
2022/01/13 12:53:17;;;;;;;36.30;16.23;;;9.20;84.40;;;;;;6090345;23;98910;-71
2022/01/13 12:55:53;;;;;;;39.78;17.38;;;9.20;84.40;;;;;;6091037;23;98415;-71
2022/01/13 12:58:27;;;;;;;36.75;15.75;;;9.20;84.70;;;;;;6091093;23;98360;-71
2022/01/13 13:01:00;;;;;;;38.42;16.83;;;9.20;85.00;;;;;;6064182;23;100425;-72
2022/01/13 13:03:27;;;;;;;41.78;17.65;;;9.20;84.70;;;;;;6113706;23;99904;-72
2022/01/13 13:05:56;;;;;;;38.33;16.85;;;9.20;84.70;;;;;;6090846;23;103712;-71
2022/01/13 13:08:25;;;;;;;46.15;18.25;;;9.10;84.90;;;;;;6090509;23;98502;-72
2022/01/13 13:10:59;;;;;;;42.15;18.40;;;9.20;85.10;;;;;;6090517;23;99090;-71
2022/01/13 13:13:28;;;;;;;51.30;20.27;;;9.20;85.00;;;;;;6090182;23;99214;-72
2022/01/13 13:16:01;;;;;;;48.92;19.88;;;9.20;84.70;;;;;;6090410;23;98435;-72
2022/01/13 13:18:31;;;;;;;41.05;17.83;;;9.30;84.80;;;;;;6091236;23;98631;-72
2022/01/13 13:20:59;;;;;;;42.53;17.95;;;9.30;84.50;;;;;;6088701;23;104184;-71